Terminal Aerodrome Forecast
Issued by NWS

Home | Current Version | Previous Version | Text Only | Print | Product List | Glossary On
Versions: 1 2 3 4 5 6 7 8 9 10 11 12 13 14 15 16 17 18 19 20 21 22 23 24 25 26 27 28 29 30 31 32
000
FTUS45 KBOU 212335
TAFBJC
TAF
KBJC 212335Z 2200/2224 01006KT P6SM FEW090 SCT120 BKN200
     FM220600 31006KT P6SM SCT020 SCT120
     FM221100 36005KT P6SM VCFG SCT002 BKN009
      TEMPO 2211/2215 1/2SM FG BKN002
     FM221600 05005KT P6SM FEW020 SCT120
     FM221900 13011KT P6SM FEW040 SCT120=

USA.gov is the U.S. government's official web portal to all federal, state and local government web resources and services.